ADDS METAR Data INFO
IDs: Format: Raw Decoded Include TAF

Data at: 2001 UTC 19 Oct 2017

KMLC 191953Z AUTO VRB03KT 10SM CLR 25/15 A3013 RMK AO2 SLP196 T02500150
KMLC 191853Z AUTO 19007KT 7SM CLR 24/16 A3016 RMK AO2 SLP205 T02440156
KMLC 191753Z AUTO 22008KT 3SM HZ CLR 23/16 A3018 RMK AO2 SLP216 T02330156 10233 20128 58008
KMLC 191653Z AUTO 21007KT 5SM HZ CLR 22/16 A3020 RMK AO2 SLP223 T02220156
KMLC 191553Z AUTO 20008KT 10SM CLR 21/15 A3021 RMK AO2 SLP224 T02060150
KMLC 191453Z AUTO 19004KT 10SM CLR 18/13 A3021 RMK AO2 SLP224 T01780133 53016
KMLC 191353Z AUTO 00000KT 10SM CLR 15/12 A3019 RMK AO2 SLP219 T01500122
KMLC 191253Z AUTO 00000KT 10SM CLR 13/10 A3017 RMK AO2 SLP212 T01330100
KMLC 191153Z AUTO 18003KT 10SM CLR 14/10 A3016 RMK AO2 SLP208 T01390100 10178 20106 53010
KMLC 191053Z AUTO 00000KT 10SM CLR 15/10 A3015 RMK AO2 SLP205 T01500100
KMLC 190953Z AUTO VRB03KT 10SM CLR 16/09 A3013 RMK AO2 SLP197 T01560094
KMLC 190853Z AUTO 18004KT 10SM FEW110 16/09 A3013 RMK AO2 SLP196 T01610094 53005
KMLC 190753Z AUTO 19004KT 10SM CLR 17/09 A3013 RMK AO2 SLP194 T01670094
KMLC 190653Z AUTO 18006KT 10SM FEW075 17/08 A3011 RMK AO2 SLP190 T01720083
KMLC 190553Z AUTO 00000KT 10SM FEW080 11/09 A3011 RMK AO2 SLP193 T01060089 10206 20106 402610078 50003
KMLC 190453Z AUTO 00000KT 10SM FEW075 SCT110 12/09 A3012 RMK AO2 SLP195 T01220094
KMLC 190353Z AUTO 00000KT 10SM FEW080 SCT110 12/10 A3012 RMK AO2 SLP194 T01220100
KMLC 190253Z AUTO 00000KT 10SM CLR 14/10 A3011 RMK AO2 SLP189 T01440100 53001
KMLC 190153Z AUTO 14004KT 10SM CLR 19/09 A3010 RMK AO2 SLP186 T01890089
KMLC 190053Z AUTO 15005KT 10SM CLR 19/09 A3010 RMK AO2 SLP188 T01940094
KMLC 182353Z AUTO 14003KT 10SM FEW080 21/10 A3010 RMK AO2 SLP188 T02060100 10261 20206 53005
KMLC 182253Z AUTO 16005KT 10SM FEW110 24/09 A3008 RMK AO2 SLP182 T02390094
KMLC 182153Z AUTO VRB05KT 10SM SCT080 SCT100 BKN120 26/08 A3008 RMK AO2 SLP181 T02560083
KMLC 182053Z AUTO 17008KT 10SM CLR 26/08 A3009 RMK AO2 SLP183 T02560083 56022
KMLC 181953Z AUTO VRB06KT 10SM CLR 25/09 A3010 RMK AO2 SLP189 T02500089
KMLC 181853Z AUTO 17007KT 10SM CLR 24/08 A3013 RMK AO2 SLP197 T02390083
KMLC 181753Z AUTO 18010G17KT 10SM FEW100 23/08 A3015 RMK AO2 SLP207 T02280078 10233 20111 58009
KMLC 181653Z AUTO 18008G16KT 150V210 10SM CLR 22/08 A3018 RMK AO2 SLP215 T02170078
KMLC 181553Z AUTO 19010G17KT 9SM FEW110 20/08 A3018 RMK AO2 SLP217 T02000078
KMLC 181453Z AUTO 18007KT 10SM FEW100 FEW120 17/08 A3018 RMK AO2 SLP216 T01720078 53011
KMLC 181353Z AUTO VRB06KT 9SM FEW110 14/08 A3017 RMK AO2 SLP214 T01440078
KMLC 181253Z AUTO 19005KT 10SM SCT070 BKN085 12/07 A3016 RMK AO2 SLP208 T01170067
KMLC 181153Z AUTO 18004KT 10SM CLR 11/06 A3015 RMK AO2 SLP205 T01110061 10111 20078 53002
KMLC 181053Z AUTO 00000KT 10SM CLR 09/06 A3014 RMK AO2 SLP201 T00890056
KMLC 180953Z AUTO 00000KT 10SM FEW095 11/06 A3013 RMK AO2 SLP198 T01060056
KMLC 180853Z AUTO 00000KT 10SM CLR 09/06 A3014 RMK AO2 SLP202 T00890061 58009